sensor_id;sensor_type;location;lat;lon;timestamp;pressure;altitude;pressure_sealevel;temperature;humidity
36284;BME280;56085;48.910;9.478;2023-05-23T00:02:17;97817.22;;;40.58;18.12
36284;BME280;56085;48.910;9.478;2023-05-23T00:04:43;97865.06;;;40.05;18.18
36284;BME280;56085;48.910;9.478;2023-05-23T00:07:08;97854.47;;;40.23;18.40
36284;BME280;56085;48.910;9.478;2023-05-23T00:09:33;97826.28;;;40.31;18.34
36284;BME280;56085;48.910;9.478;2023-05-23T00:11:59;97857.56;;;40.09;18.55
36284;BME280;56085;48.910;9.478;2023-05-23T00:14:24;97840.97;;;40.41;18.35
36284;BME280;56085;48.910;9.478;2023-05-23T00:16:50;97854.47;;;40.54;18.61
36284;BME280;56085;48.910;9.478;2023-05-23T00:19:15;97856.41;;;40.66;18.41
36284;BME280;56085;48.910;9.478;2023-05-23T00:21:41;97865.50;;;40.47;18.37
36284;BME280;56085;48.910;9.478;2023-05-23T00:24:12;97843.88;;;40.41;18.42
36284;BME280;56085;48.910;9.478;2023-05-23T00:26:38;97835.94;;;40.41;18.51
36284;BME280;56085;48.910;9.478;2023-05-23T00:29:04;97803.31;;;40.33;18.79
36284;BME280;56085;48.910;9.478;2023-05-23T00:31:29;97825.31;;;40.75;18.66
36284;BME280;56085;48.910;9.478;2023-05-23T00:33:54;97834.31;;;41.10;18.42
36284;BME280;56085;48.910;9.478;2023-05-23T00:36:20;97824.34;;;41.44;18.54
36284;BME280;56085;48.910;9.478;2023-05-23T00:38:48;97842.69;;;40.75;18.47
36284;BME280;56085;48.910;9.478;2023-05-23T00:41:13;97830.66;;;41.02;18.55
36284;BME280;56085;48.910;9.478;2023-05-23T00:43:39;97854.47;;;40.92;18.73
36284;BME280;56085;48.910;9.478;2023-05-23T00:46:04;97853.34;;;41.44;18.74
36284;BME280;56085;48.910;9.478;2023-05-23T00:48:30;97835.09;;;41.59;18.66
36284;BME280;56085;48.910;9.478;2023-05-23T00:50:55;97866.50;;;41.29;18.78
36284;BME280;56085;48.910;9.478;2023-05-23T00:53:21;97862.69;;;41.19;18.37
36284;BME280;56085;48.910;9.478;2023-05-23T00:55:46;97864.72;;;40.70;18.61
36284;BME280;56085;48.910;9.478;2023-05-23T00:58:12;97854.25;;;40.90;18.77
36284;BME280;56085;48.910;9.478;2023-05-23T01:00:40;97907.03;;;40.96;18.73
36284;BME280;56085;48.910;9.478;2023-05-23T01:03:05;97854.19;;;41.21;18.61
36284;BME280;56085;48.910;9.478;2023-05-23T01:05:31;97852.50;;;41.03;18.83
36284;BME280;56085;48.910;9.478;2023-05-23T01:07:56;97833.22;;;40.66;18.66
36284;BME280;56085;48.910;9.478;2023-05-23T01:10:26;98029.28;;;40.87;18.79
36284;BME280;56085;48.910;9.478;2023-05-23T01:13:19;98005.16;;;40.61;18.62
36284;BME280;56085;48.910;9.478;2023-05-23T01:18:23;97874.00;;;40.53;19.07
36284;BME280;56085;48.910;9.478;2023-05-23T01:20:56;98036.13;;;40.38;18.77
36284;BME280;56085;48.910;9.478;2023-05-23T01:29:25;98014.53;;;41.78;18.93
36284;BME280;56085;48.910;9.478;2023-05-23T01:31:54;97939.63;;;41.20;19.04
36284;BME280;56085;48.910;9.478;2023-05-23T01:34:21;97862.69;;;41.67;19.16
36284;BME280;56085;48.910;9.478;2023-05-23T01:36:49;97987.03;;;41.86;18.93
36284;BME280;56085;48.910;9.478;2023-05-23T01:39:17;97860.16;;;41.72;19.01
36284;BME280;56085;48.910;9.478;2023-05-23T01:41:43;97833.91;;;42.28;19.14
36284;BME280;56085;48.910;9.478;2023-05-23T01:44:08;97850.00;;;42.46;18.86
36284;BME280;56085;48.910;9.478;2023-05-23T01:46:34;97892.53;;;42.34;18.91
36284;BME280;56085;48.910;9.478;2023-05-23T01:49:01;97971.59;;;42.17;18.63
36284;BME280;56085;48.910;9.478;2023-05-23T01:51:27;97841.09;;;41.94;18.79
36284;BME280;56085;48.910;9.478;2023-05-23T01:53:53;97847.28;;;42.48;18.72
36284;BME280;56085;48.910;9.478;2023-05-23T01:56:19;97926.75;;;43.11;18.47
36284;BME280;56085;48.910;9.478;2023-05-23T01:58:46;97862.09;;;43.20;18.53
36284;BME280;56085;48.910;9.478;2023-05-23T02:01:11;97840.59;;;42.98;18.44
36284;BME280;56085;48.910;9.478;2023-05-23T02:03:36;97853.25;;;43.28;18.38
36284;BME280;56085;48.910;9.478;2023-05-23T02:06:02;97839.50;;;42.94;18.13
36284;BME280;56085;48.910;9.478;2023-05-23T02:08:27;97859.56;;;42.64;18.06
36284;BME280;56085;48.910;9.478;2023-05-23T02:10:52;97860.19;;;42.80;17.99
36284;BME280;56085;48.910;9.478;2023-05-23T02:13:18;97863.81;;;42.63;18.08
36284;BME280;56085;48.910;9.478;2023-05-23T02:15:43;97868.22;;;42.89;18.25
36284;BME280;56085;48.910;9.478;2023-05-23T02:18:08;97834.59;;;42.79;18.23
36284;BME280;56085;48.910;9.478;2023-05-23T02:20:33;97846.56;;;42.40;18.25
36284;BME280;56085;48.910;9.478;2023-05-23T02:22:59;97872.00;;;42.57;17.67
36284;BME280;56085;48.910;9.478;2023-05-23T02:25:24;97851.31;;;42.53;18.01
36284;BME280;56085;48.910;9.478;2023-05-23T02:27:49;97872.06;;;42.92;17.85
36284;BME280;56085;48.910;9.478;2023-05-23T02:30:15;97869.66;;;42.81;18.08
36284;BME280;56085;48.910;9.478;2023-05-23T02:32:40;97865.69;;;43.29;17.86
36284;BME280;56085;48.910;9.478;2023-05-23T02:35:05;97883.91;;;43.47;17.82
36284;BME280;56085;48.910;9.478;2023-05-23T02:37:31;97895.72;;;42.71;18.15
36284;BME280;56085;48.910;9.478;2023-05-23T02:39:56;97887.38;;;41.92;18.17
36284;BME280;56085;48.910;9.478;2023-05-23T02:42:21;97893.66;;;42.06;17.90
36284;BME280;56085;48.910;9.478;2023-05-23T02:44:47;97888.72;;;42.24;17.86
36284;BME280;56085;48.910;9.478;2023-05-23T02:47:12;97865.00;;;42.35;18.00
36284;BME280;56085;48.910;9.478;2023-05-23T02:49:37;97885.50;;;42.12;17.93
36284;BME280;56085;48.910;9.478;2023-05-23T02:52:03;97890.88;;;42.15;18.30
36284;BME280;56085;48.910;9.478;2023-05-23T02:54:28;97908.88;;;41.81;18.27
36284;BME280;56085;48.910;9.478;2023-05-23T02:56:53;97900.69;;;41.54;18.18
36284;BME280;56085;48.910;9.478;2023-05-23T02:59:20;97889.53;;;41.83;18.14
36284;BME280;56085;48.910;9.478;2023-05-23T03:01:46;97873.75;;;42.02;18.37
36284;BME280;56085;48.910;9.478;2023-05-23T03:04:11;97864.78;;;41.75;18.37
36284;BME280;56085;48.910;9.478;2023-05-23T03:06:37;97878.22;;;41.95;18.25
36284;BME280;56085;48.910;9.478;2023-05-23T03:09:04;97903.53;;;42.02;18.33
36284;BME280;56085;48.910;9.478;2023-05-23T03:11:29;97898.63;;;41.39;18.33
36284;BME280;56085;48.910;9.478;2023-05-23T03:13:54;97894.03;;;41.69;18.48
36284;BME280;56085;48.910;9.478;2023-05-23T03:16:21;97952.25;;;41.79;18.66
36284;BME280;56085;48.910;9.478;2023-05-23T03:18:47;97915.19;;;41.54;18.62
36284;BME280;56085;48.910;9.478;2023-05-23T03:21:12;97904.09;;;41.76;18.32
36284;BME280;56085;48.910;9.478;2023-05-23T03:23:37;97873.88;;;42.12;18.29
36284;BME280;56085;48.910;9.478;2023-05-23T03:26:03;97898.09;;;42.07;18.41
36284;BME280;56085;48.910;9.478;2023-05-23T03:28:30;97882.50;;;41.94;18.24
36284;BME280;56085;48.910;9.478;2023-05-23T03:30:56;97917.81;;;41.67;18.34
36284;BME280;56085;48.910;9.478;2023-05-23T03:33:21;97913.41;;;41.66;18.71
36284;BME280;56085;48.910;9.478;2023-05-23T03:35:46;97901.56;;;41.16;18.53
36284;BME280;56085;48.910;9.478;2023-05-23T03:38:12;97908.13;;;41.73;18.58
36284;BME280;56085;48.910;9.478;2023-05-23T03:40:37;97872.31;;;41.85;18.41
36284;BME280;56085;48.910;9.478;2023-05-23T03:43:04;97961.47;;;41.37;18.33
36284;BME280;56085;48.910;9.478;2023-05-23T03:45:30;97958.75;;;41.39;18.75
36284;BME280;56085;48.910;9.478;2023-05-23T03:47:55;97936.19;;;40.98;18.86
36284;BME280;56085;48.910;9.478;2023-05-23T03:50:21;97916.69;;;40.91;18.72
36284;BME280;56085;48.910;9.478;2023-05-23T03:52:46;97903.91;;;40.87;18.93
36284;BME280;56085;48.910;9.478;2023-05-23T03:55:11;97909.31;;;40.90;18.92
36284;BME280;56085;48.910;9.478;2023-05-23T03:57:36;97903.94;;;40.79;19.05
36284;BME280;56085;48.910;9.478;2023-05-23T04:00:03;97953.56;;;41.06;18.90
36284;BME280;56085;48.910;9.478;2023-05-23T04:02:30;97920.78;;;41.60;19.02
36284;BME280;56085;48.910;9.478;2023-05-23T04:04:56;97907.81;;;42.01;18.92
36284;BME280;56085;48.910;9.478;2023-05-23T04:07:22;97909.94;;;41.60;18.93
36284;BME280;56085;48.910;9.478;2023-05-23T04:09:47;97897.72;;;41.69;18.91
36284;BME280;56085;48.910;9.478;2023-05-23T04:12:12;97883.88;;;41.93;18.81
36284;BME280;56085;48.910;9.478;2023-05-23T04:14:38;97913.50;;;42.17;18.99
36284;BME280;56085;48.910;9.478;2023-05-23T04:17:03;97926.31;;;42.47;18.56
36284;BME280;56085;48.910;9.478;2023-05-23T04:19:29;97899.84;;;42.35;18.70
36284;BME280;56085;48.910;9.478;2023-05-23T04:21:55;97922.28;;;41.68;18.82
36284;BME280;56085;48.910;9.478;2023-05-23T04:24:20;97918.66;;;42.01;19.01
36284;BME280;56085;48.910;9.478;2023-05-23T04:26:45;97935.44;;;42.18;18.68
36284;BME280;56085;48.910;9.478;2023-05-23T04:29:10;97910.72;;;42.34;18.71
36284;BME280;56085;48.910;9.478;2023-05-23T04:31:36;97931.16;;;42.11;18.80
36284;BME280;56085;48.910;9.478;2023-05-23T04:34:02;97913.22;;;42.05;18.75
36284;BME280;56085;48.910;9.478;2023-05-23T04:36:27;97902.50;;;42.15;18.72
36284;BME280;56085;48.910;9.478;2023-05-23T04:38:54;97940.47;;;42.17;19.04
36284;BME280;56085;48.910;9.478;2023-05-23T04:41:19;97914.56;;;42.37;19.00
36284;BME280;56085;48.910;9.478;2023-05-23T04:43:47;97919.09;;;42.81;18.73
36284;BME280;56085;48.910;9.478;2023-05-23T04:46:12;97929.03;;;42.70;18.46
36284;BME280;56085;48.910;9.478;2023-05-23T04:48:38;97925.03;;;42.65;18.50
36284;BME280;56085;48.910;9.478;2023-05-23T04:51:03;97911.53;;;42.27;18.45
36284;BME280;56085;48.910;9.478;2023-05-23T04:53:35;97941.25;;;42.43;18.52
36284;BME280;56085;48.910;9.478;2023-05-23T04:56:01;97953.09;;;42.04;18.38
36284;BME280;56085;48.910;9.478;2023-05-23T04:58:26;97941.34;;;41.95;18.69
36284;BME280;56085;48.910;9.478;2023-05-23T05:00:52;97923.88;;;42.35;18.83
36284;BME280;56085;48.910;9.478;2023-05-23T05:03:17;97951.44;;;41.86;18.68
36284;BME280;56085;48.910;9.478;2023-05-23T05:05:42;97918.41;;;41.74;18.91
36284;BME280;56085;48.910;9.478;2023-05-23T05:08:08;97928.75;;;41.92;18.44
36284;BME280;56085;48.910;9.478;2023-05-23T05:10:33;97957.31;;;42.44;18.90
36284;BME280;56085;48.910;9.478;2023-05-23T05:12:58;97900.84;;;42.55;18.61
36284;BME280;56085;48.910;9.478;2023-05-23T05:15:24;97964.72;;;42.37;18.78
36284;BME280;56085;48.910;9.478;2023-05-23T05:17:50;97946.88;;;42.92;18.84
36284;BME280;56085;48.910;9.478;2023-05-23T05:20:15;97962.91;;;42.75;18.72
36284;BME280;56085;48.910;9.478;2023-05-23T05:22:41;97954.00;;;42.48;18.49
36284;BME280;56085;48.910;9.478;2023-05-23T05:25:08;98004.88;;;42.64;18.43
36284;BME280;56085;48.910;9.478;2023-05-23T05:27:33;97965.69;;;42.65;18.46
36284;BME280;56085;48.910;9.478;2023-05-23T05:29:59;97928.00;;;42.25;18.60
36284;BME280;56085;48.910;9.478;2023-05-23T05:32:29;97974.63;;;41.94;18.79
36284;BME280;56085;48.910;9.478;2023-05-23T05:34:58;97988.25;;;41.60;18.53
36284;BME280;56085;48.910;9.478;2023-05-23T05:37:23;97963.44;;;41.11;18.97
36284;BME280;56085;48.910;9.478;2023-05-23T05:39:49;97934.44;;;41.75;18.59
36284;BME280;56085;48.910;9.478;2023-05-23T05:42:14;97955.75;;;42.18;18.86
36284;BME280;56085;48.910;9.478;2023-05-23T05:44:39;97949.56;;;42.72;18.56
36284;BME280;56085;48.910;9.478;2023-05-23T05:47:05;97936.69;;;42.58;18.50
36284;BME280;56085;48.910;9.478;2023-05-23T05:49:30;97984.56;;;41.67;18.74
36284;BME280;56085;48.910;9.478;2023-05-23T05:51:55;97956.72;;;42.46;18.67
36284;BME280;56085;48.910;9.478;2023-05-23T05:54:20;97979.41;;;42.07;18.74
36284;BME280;56085;48.910;9.478;2023-05-23T05:56:46;97986.44;;;40.93;18.73
36284;BME280;56085;48.910;9.478;2023-05-23T05:59:12;97979.38;;;41.58;18.77
36284;BME280;56085;48.910;9.478;2023-05-23T06:01:37;97947.41;;;41.81;18.61
36284;BME280;56085;48.910;9.478;2023-05-23T06:04:02;97943.56;;;41.63;18.92
36284;BME280;56085;48.910;9.478;2023-05-23T06:06:27;97976.38;;;40.94;19.04
36284;BME280;56085;48.910;9.478;2023-05-23T06:08:53;97984.09;;;41.15;18.91
36284;BME280;56085;48.910;9.478;2023-05-23T06:11:18;98016.53;;;40.75;19.09
36284;BME280;56085;48.910;9.478;2023-05-23T06:13:43;97999.53;;;40.71;19.33
36284;BME280;56085;48.910;9.478;2023-05-23T06:16:09;97960.38;;;41.73;19.08
36284;BME280;56085;48.910;9.478;2023-05-23T06:18:34;98004.56;;;40.71;19.52
36284;BME280;56085;48.910;9.478;2023-05-23T06:20:59;97996.06;;;41.19;19.10
36284;BME280;56085;48.910;9.478;2023-05-23T06:23:24;97977.25;;;41.59;19.21
36284;BME280;56085;48.910;9.478;2023-05-23T06:25:50;97979.63;;;41.45;19.33
36284;BME280;56085;48.910;9.478;2023-05-23T06:28:15;98009.22;;;41.05;19.40
36284;BME280;56085;48.910;9.478;2023-05-23T06:30:40;97951.34;;;41.53;19.13
36284;BME280;56085;48.910;9.478;2023-05-23T06:33:06;97980.72;;;39.82;19.57
36284;BME280;56085;48.910;9.478;2023-05-23T06:35:31;98029.69;;;39.72;19.52
36284;BME280;56085;48.910;9.478;2023-05-23T06:37:56;98017.75;;;41.03;19.51
36284;BME280;56085;48.910;9.478;2023-05-23T06:40:21;97986.97;;;41.15;19.58
36284;BME280;56085;48.910;9.478;2023-05-23T06:42:47;98000.88;;;41.55;19.49
36284;BME280;56085;48.910;9.478;2023-05-23T06:45:12;98005.47;;;41.74;19.57
36284;BME280;56085;48.910;9.478;2023-05-23T06:47:37;98027.00;;;41.47;19.42
36284;BME280;56085;48.910;9.478;2023-05-23T06:50:03;98036.97;;;41.85;19.29
36284;BME280;56085;48.910;9.478;2023-05-23T06:52:28;98004.13;;;41.67;19.14
36284;BME280;56085;48.910;9.478;2023-05-23T06:54:53;98017.91;;;42.07;19.48
36284;BME280;56085;48.910;9.478;2023-05-23T06:57:19;97988.50;;;42.44;19.46
36284;BME280;56085;48.910;9.478;2023-05-23T06:59:44;97982.31;;;42.72;19.35
36284;BME280;56085;48.910;9.478;2023-05-23T07:02:10;98011.00;;;41.95;19.33
36284;BME280;56085;48.910;9.478;2023-05-23T07:04:35;97990.03;;;42.45;19.23
36284;BME280;56085;48.910;9.478;2023-05-23T07:07:00;98011.50;;;42.16;19.04
36284;BME280;56085;48.910;9.478;2023-05-23T07:09:26;98020.00;;;42.14;19.05
36284;BME280;56085;48.910;9.478;2023-05-23T07:11:51;98029.59;;;41.92;19.20
36284;BME280;56085;48.910;9.478;2023-05-23T07:14:16;98028.88;;;41.60;19.33
36284;BME280;56085;48.910;9.478;2023-05-23T07:16:42;98026.94;;;41.78;19.32
36284;BME280;56085;48.910;9.478;2023-05-23T07:19:07;98028.53;;;41.48;19.41
36284;BME280;56085;48.910;9.478;2023-05-23T07:21:33;98034.19;;;42.02;19.21
36284;BME280;56085;48.910;9.478;2023-05-23T07:23:58;98030.69;;;42.12;19.21
36284;BME280;56085;48.910;9.478;2023-05-23T07:26:23;97990.50;;;41.93;19.38
36284;BME280;56085;48.910;9.478;2023-05-23T07:28:48;97995.63;;;42.10;19.35
36284;BME280;56085;48.910;9.478;2023-05-23T07:31:14;98020.69;;;42.71;19.30
36284;BME280;56085;48.910;9.478;2023-05-23T07:33:39;98025.47;;;42.10;19.04
36284;BME280;56085;48.910;9.478;2023-05-23T07:36:05;98020.00;;;43.31;19.01
36284;BME280;56085;48.910;9.478;2023-05-23T07:38:30;98000.94;;;42.69;18.59
36284;BME280;56085;48.910;9.478;2023-05-23T07:40:55;97988.59;;;42.86;18.69
36284;BME280;56085;48.910;9.478;2023-05-23T07:43:21;97997.50;;;41.74;18.97
36284;BME280;56085;48.910;9.478;2023-05-23T07:45:46;98083.75;;;40.65;19.03
36284;BME280;56085;48.910;9.478;2023-05-23T07:48:11;98032.34;;;42.30;18.82
36284;BME280;56085;48.910;9.478;2023-05-23T07:50:39;98135.34;;;42.37;18.93
36284;BME280;56085;48.910;9.478;2023-05-23T07:53:04;98032.41;;;41.51;18.48
36284;BME280;56085;48.910;9.478;2023-05-23T07:55:30;98047.66;;;41.67;18.89
36284;BME280;56085;48.910;9.478;2023-05-23T07:57:56;98059.81;;;41.89;18.81
36284;BME280;56085;48.910;9.478;2023-05-23T08:00:21;98021.81;;;43.01;18.45
36284;BME280;56085;48.910;9.478;2023-05-23T08:02:46;98023.31;;;42.18;18.78
36284;BME280;56085;48.910;9.478;2023-05-23T08:05:12;98047.91;;;42.50;18.39
36284;BME280;56085;48.910;9.478;2023-05-23T08:07:37;98045.13;;;42.27;18.69
36284;BME280;56085;48.910;9.478;2023-05-23T08:10:02;98052.88;;;42.65;18.31
36284;BME280;56085;48.910;9.478;2023-05-23T08:12:28;98040.31;;;40.89;18.61
36284;BME280;56085;48.910;9.478;2023-05-23T08:14:53;98086.63;;;42.12;18.60
36284;BME280;56085;48.910;9.478;2023-05-23T08:17:18;98059.47;;;41.07;18.73
36284;BME280;56085;48.910;9.478;2023-05-23T08:19:44;98078.25;;;41.37;18.71
36284;BME280;56085;48.910;9.478;2023-05-23T08:22:09;98074.72;;;41.69;18.53
36284;BME280;56085;48.910;9.478;2023-05-23T08:24:35;98054.41;;;40.77;18.74
36284;BME280;56085;48.910;9.478;2023-05-23T08:27:00;98083.59;;;39.90;18.86
36284;BME280;56085;48.910;9.478;2023-05-23T08:29:25;98107.53;;;39.91;18.89
36284;BME280;56085;48.910;9.478;2023-05-23T08:31:50;98087.69;;;39.95;18.83
36284;BME280;56085;48.910;9.478;2023-05-23T08:34:16;98081.72;;;40.45;18.79
36284;BME280;56085;48.910;9.478;2023-05-23T08:36:41;98067.38;;;41.68;18.76
36284;BME280;56085;48.910;9.478;2023-05-23T08:39:07;98054.84;;;41.04;18.95
36284;BME280;56085;48.910;9.478;2023-05-23T08:41:33;98096.53;;;40.78;18.68
36284;BME280;56085;48.910;9.478;2023-05-23T08:43:59;98092.75;;;41.45;18.77
36284;BME280;56085;48.910;9.478;2023-05-23T08:46:25;98107.53;;;42.18;18.60
36284;BME280;56085;48.910;9.478;2023-05-23T08:48:54;98131.00;;;42.94;18.44
36284;BME280;56085;48.910;9.478;2023-05-23T08:51:21;98124.03;;;42.00;18.36
36284;BME280;56085;48.910;9.478;2023-05-23T08:53:47;98089.59;;;42.45;18.18
36284;BME280;56085;48.910;9.478;2023-05-23T08:56:14;98146.25;;;42.13;18.31
36284;BME280;56085;48.910;9.478;2023-05-23T08:58:41;98080.59;;;42.92;18.32
36284;BME280;56085;48.910;9.478;2023-05-23T09:01:10;98171.16;;;43.21;18.07
36284;BME280;56085;48.910;9.478;2023-05-23T09:03:36;98051.06;;;43.71;18.03
36284;BME280;56085;48.910;9.478;2023-05-23T09:06:05;98206.44;;;43.25;17.75
36284;BME280;56085;48.910;9.478;2023-05-23T09:08:32;98137.00;;;41.07;17.92
36284;BME280;56085;48.910;9.478;2023-05-23T09:10:57;98110.03;;;42.70;17.91
36284;BME280;56085;48.910;9.478;2023-05-23T09:13:22;98115.47;;;42.10;17.85
36284;BME280;56085;48.910;9.478;2023-05-23T09:18:26;98134.22;;;43.31;17.59
36284;BME280;56085;48.910;9.478;2023-05-23T09:20:52;98119.53;;;43.29;17.70
36284;BME280;56085;48.910;9.478;2023-05-23T09:23:17;98118.63;;;43.19;17.54
36284;BME280;56085;48.910;9.478;2023-05-23T09:25:46;98187.00;;;43.86;17.47
36284;BME280;56085;48.910;9.478;2023-05-23T09:28:12;98112.41;;;42.89;17.79
36284;BME280;56085;48.910;9.478;2023-05-23T09:30:38;98131.59;;;41.88;17.61
36284;BME280;56085;48.910;9.478;2023-05-23T09:33:03;98081.84;;;41.92;17.48
36284;BME280;56085;48.910;9.478;2023-05-23T09:35:28;98071.13;;;42.66;17.67
36284;BME280;56085;48.910;9.478;2023-05-23T09:37:54;98090.03;;;42.75;17.37
36284;BME280;56085;48.910;9.478;2023-05-23T09:40:30;98309.44;;;42.04;17.10
36284;BME280;56085;48.910;9.478;2023-05-23T09:43:01;98264.81;;;42.71;17.15
36284;BME280;56085;48.910;9.478;2023-05-23T09:45:30;98249.66;;;45.17;16.85
36284;BME280;56085;48.910;9.478;2023-05-23T09:47:56;98082.28;;;43.70;17.39
36284;BME280;56085;48.910;9.478;2023-05-23T09:50:22;98137.50;;;44.03;16.85
36284;BME280;56085;48.910;9.478;2023-05-23T09:52:48;98137.66;;;43.45;16.96
36284;BME280;56085;48.910;9.478;2023-05-23T09:55:15;98101.56;;;43.66;16.97
36284;BME280;56085;48.910;9.478;2023-05-23T09:57:41;98199.06;;;44.00;16.79
36284;BME280;56085;48.910;9.478;2023-05-23T10:00:07;98144.34;;;43.98;16.45
36284;BME280;56085;48.910;9.478;2023-05-23T10:03:09;98263.78;;;45.75;16.30
36284;BME280;56085;48.910;9.478;2023-05-23T10:05:40;98229.84;;;45.25;16.03
36284;BME280;56085;48.910;9.478;2023-05-23T10:08:43;98252.50;;;45.35;16.14
36284;BME280;56085;48.910;9.478;2023-05-23T10:13:40;98242.47;;;44.83;16.06
36284;BME280;56085;48.910;9.478;2023-05-23T10:18:42;98302.19;;;45.44;15.62
36284;BME280;56085;48.910;9.478;2023-05-23T10:21:10;98244.97;;;44.87;15.64
36284;BME280;56085;48.910;9.478;2023-05-23T10:23:36;98119.34;;;44.75;15.48
36284;BME280;56085;48.910;9.478;2023-05-23T10:26:03;98158.25;;;44.42;15.62
36284;BME280;56085;48.910;9.478;2023-05-23T10:28:32;98106.53;;;44.88;15.60
36284;BME280;56085;48.910;9.478;2023-05-23T10:30:58;98153.88;;;44.34;15.57
36284;BME280;56085;48.910;9.478;2023-05-23T10:33:27;98165.78;;;44.10;15.33
36284;BME280;56085;48.910;9.478;2023-05-23T10:36:06;98310.44;;;43.83;15.08
36284;BME280;56085;48.910;9.478;2023-05-23T10:38:51;98284.47;;;43.52;15.11
36284;BME280;56085;48.910;9.478;2023-05-23T10:41:24;98260.47;;;43.94;15.25
36284;BME280;56085;48.910;9.478;2023-05-23T10:44:19;98274.28;;;44.71;15.33
36284;BME280;56085;48.910;9.478;2023-05-23T10:46:58;98249.38;;;44.18;15.09
36284;BME280;56085;48.910;9.478;2023-05-23T10:49:39;98222.25;;;44.50;15.04
36284;BME280;56085;48.910;9.478;2023-05-23T10:52:05;98174.50;;;43.68;15.20
36284;BME280;56085;48.910;9.478;2023-05-23T10:54:35;98311.34;;;43.27;14.86
36284;BME280;56085;48.910;9.478;2023-05-23T10:57:04;98304.47;;;43.40;15.10
36284;BME280;56085;48.910;9.478;2023-05-23T10:59:30;98123.53;;;43.59;15.01
36284;BME280;56085;48.910;9.478;2023-05-23T11:01:55;98133.94;;;42.46;15.05
36284;BME280;56085;48.910;9.478;2023-05-23T11:04:27;98316.59;;;43.21;14.87
36284;BME280;56085;48.910;9.478;2023-05-23T11:06:54;98159.34;;;43.19;14.95
36284;BME280;56085;48.910;9.478;2023-05-23T11:09:21;98125.78;;;43.68;15.04
36284;BME280;56085;48.910;9.478;2023-05-23T11:14:19;98205.59;;;43.32;14.82
36284;BME280;56085;48.910;9.478;2023-05-23T11:16:45;98120.97;;;43.63;14.88
36284;BME280;56085;48.910;9.478;2023-05-23T11:21:43;98214.72;;;43.62;14.64
36284;BME280;56085;48.910;9.478;2023-05-23T11:24:09;98114.06;;;43.76;14.93
36284;BME280;56085;48.910;9.478;2023-05-23T11:26:34;98183.59;;;43.47;14.86
36284;BME280;56085;48.910;9.478;2023-05-23T11:28:59;98157.22;;;43.70;14.74
36284;BME280;56085;48.910;9.478;2023-05-23T11:31:27;98160.38;;;44.24;14.62
36284;BME280;56085;48.910;9.478;2023-05-23T11:33:52;98197.13;;;42.86;14.57
36284;BME280;56085;48.910;9.478;2023-05-23T11:36:20;98286.59;;;41.85;14.48
36284;BME280;56085;48.910;9.478;2023-05-23T11:38:46;98149.09;;;42.85;14.74
36284;BME280;56085;48.910;9.478;2023-05-23T11:41:11;98165.06;;;41.58;14.64
36284;BME280;56085;48.910;9.478;2023-05-23T11:43:36;98178.38;;;42.31;14.61
36284;BME280;56085;48.910;9.478;2023-05-23T11:46:07;98300.75;;;43.47;14.20
36284;BME280;56085;48.910;9.478;2023-05-23T11:48:33;98131.16;;;43.04;14.52
36284;BME280;56085;48.910;9.478;2023-05-23T11:50:58;98092.94;;;44.10;14.49
36284;BME280;56085;48.910;9.478;2023-05-23T11:53:26;98276.88;;;43.56;14.53
36284;BME280;56085;48.910;9.478;2023-05-23T11:55:57;98310.38;;;44.16;14.13
36284;BME280;56085;48.910;9.478;2023-05-23T11:58:33;98267.09;;;44.72;14.05
36284;BME280;56085;48.910;9.478;2023-05-23T12:01:09;98330.41;;;45.59;14.12
36284;BME280;56085;48.910;9.478;2023-05-23T12:03:46;98278.22;;;45.01;13.77
36284;BME280;56085;48.910;9.478;2023-05-23T12:06:23;98207.56;;;44.05;14.35
36284;BME280;56085;48.910;9.478;2023-05-23T12:08:50;98144.81;;;42.37;14.42
36284;BME280;56085;48.910;9.478;2023-05-23T12:11:15;98157.66;;;41.03;14.58
36284;BME280;56085;48.910;9.478;2023-05-23T12:13:41;98116.03;;;42.98;14.38
36284;BME280;56085;48.910;9.478;2023-05-23T12:16:07;98101.34;;;43.21;14.37
36284;BME280;56085;48.910;9.478;2023-05-23T12:18:32;98178.69;;;43.24;14.33
36284;BME280;56085;48.910;9.478;2023-05-23T12:21:01;98259.44;;;44.42;14.32
36284;BME280;56085;48.910;9.478;2023-05-23T12:23:28;98165.41;;;43.38;14.31
36284;BME280;56085;48.910;9.478;2023-05-23T12:25:54;98201.69;;;45.38;14.40
36284;BME280;56085;48.910;9.478;2023-05-23T12:28:20;98136.28;;;45.04;14.16
36284;BME280;56085;48.910;9.478;2023-05-23T12:30:46;98110.16;;;44.78;13.98
36284;BME280;56085;48.910;9.478;2023-05-23T12:33:13;98121.94;;;44.98;13.66
36284;BME280;56085;48.910;9.478;2023-05-23T12:35:42;98276.31;;;43.75;13.87
36284;BME280;56085;48.910;9.478;2023-05-23T12:38:14;98315.13;;;44.71;13.62
36284;BME280;56085;48.910;9.478;2023-05-23T12:40:40;98087.63;;;45.16;13.78
36284;BME280;56085;48.910;9.478;2023-05-23T12:43:08;98245.19;;;45.80;13.56
36284;BME280;56085;48.910;9.478;2023-05-23T12:45:35;98233.47;;;44.71;13.62
36284;BME280;56085;48.910;9.478;2023-05-23T12:48:01;98148.97;;;44.19;13.69
36284;BME280;56085;48.910;9.478;2023-05-23T12:50:27;98112.97;;;44.86;13.81
36284;BME280;56085;48.910;9.478;2023-05-23T12:52:52;98109.19;;;44.66;13.84
36284;BME280;56085;48.910;9.478;2023-05-23T12:55:18;98100.69;;;45.52;13.68
36284;BME280;56085;48.910;9.478;2023-05-23T12:57:43;98074.63;;;45.27;13.61
36284;BME280;56085;48.910;9.478;2023-05-23T13:00:09;98149.22;;;44.48;13.58
36284;BME280;56085;48.910;9.478;2023-05-23T13:02:34;98073.25;;;43.84;13.65
36284;BME280;56085;48.910;9.478;2023-05-23T13:05:00;98111.75;;;43.74;13.81
36284;BME280;56085;48.910;9.478;2023-05-23T13:07:25;98123.50;;;43.16;14.01
36284;BME280;56085;48.910;9.478;2023-05-23T13:09:50;98125.53;;;44.61;13.50
36284;BME280;56085;48.910;9.478;2023-05-23T13:12:16;98088.59;;;45.95;13.45
36284;BME280;56085;48.910;9.478;2023-05-23T13:14:41;98114.84;;;45.28;13.40
36284;BME280;56085;48.910;9.478;2023-05-23T13:17:06;98096.28;;;45.90;13.63
36284;BME280;56085;48.910;9.478;2023-05-23T13:19:32;98108.84;;;44.89;13.65